Time;durP1;ratioP1;P1;durP2;ratioP2;P2;SDS_P1;SDS_P2;PMS_P1;PMS_P2;Temp;Humidity;BMP_temperature;BMP_pressure;BME280_temperature;BME280_humidity;BME280_pressure;Samples;Min_cycle;Max_cycle;Signal;HPM_P1;HPM_P2
2022/10/17 00:01:03;;;;;;;87.73;57.73;;;;;;;;;;5030103;28;20387;-56
2022/10/17 00:03:29;;;;;;;91.78;59.80;;;;;;;;;;5024893;28;20665;-51
2022/10/17 00:05:55;;;;;;;91.95;57.35;;;;;;;;;;5031722;28;20361;-57
2022/10/17 00:08:21;;;;;;;85.00;57.13;;;;;;;;;;5018421;28;20380;-55
2022/10/17 00:11:04;;;;;;;92.57;59.17;;;;;;;;;;5012946;28;20025;-54
2022/10/17 00:13:31;;;;;;;97.45;58.10;;;;;;;;;;5029164;28;20384;-53
2022/10/17 00:15:57;;;;;;;106.28;60.70;;;;;;;;;;5031169;28;20028;-56
2022/10/17 00:18:23;;;;;;;101.13;63.20;;;;;;;;;;5031103;28;20037;-54
2022/10/17 00:20:49;;;;;;;99.15;63.10;;;;;;;;;;5031433;28;20033;-53
2022/10/17 00:23:15;;;;;;;104.68;62.58;;;;;;;;;;5028132;28;20029;-56
2022/10/17 00:25:41;;;;;;;98.32;60.53;;;;;;;;;;5030035;28;20116;-55
2022/10/17 00:28:11;;;;;;;96.47;61.25;;;;;;;;;;5030731;28;20021;-56
2022/10/17 00:30:38;;;;;;;103.70;63.78;;;;;;;;;;5031322;28;20025;-53
2022/10/17 00:33:04;;;;;;;110.97;64.97;;;;;;;;;;5018197;28;20022;-56
2022/10/17 00:35:30;;;;;;;113.97;69.63;;;;;;;;;;5011866;28;20100;-53
2022/10/17 00:37:56;;;;;;;104.85;65.80;;;;;;;;;;5023655;28;20033;-54
2022/10/17 00:40:22;;;;;;;110.22;66.78;;;;;;;;;;5031013;28;20444;-55
2022/10/17 00:42:50;;;;;;;119.53;71.88;;;;;;;;;;5022070;28;20049;-56
2022/10/17 00:45:27;;;;;;;113.60;66.22;;;;;;;;;;5011285;28;20030;-55
2022/10/17 00:47:59;;;;;;;116.95;69.05;;;;;;;;;;5011658;28;20026;-56
2022/10/17 00:50:25;;;;;;;114.50;71.35;;;;;;;;;;5026287;28;20026;-57
2022/10/17 00:52:52;;;;;;;112.10;68.97;;;;;;;;;;5029231;28;20450;-55
2022/10/17 00:55:28;;;;;;;108.25;65.72;;;;;;;;;;5031124;28;20271;-52
2022/10/17 00:57:54;;;;;;;116.95;70.10;;;;;;;;;;5031167;28;20037;-54
2022/10/17 01:00:21;;;;;;;114.75;68.38;;;;;;;;;;5029061;28;20034;-56
2022/10/17 01:02:47;;;;;;;117.88;69.57;;;;;;;;;;5029534;28;20033;-57
2022/10/17 01:05:14;;;;;;;118.00;70.30;;;;;;;;;;5032843;28;20495;-56
2022/10/17 01:07:41;;;;;;;116.88;72.15;;;;;;;;;;5030992;28;20068;-57
2022/10/17 01:10:08;;;;;;;118.10;70.90;;;;;;;;;;5025869;28;20063;-54
2022/10/17 01:12:34;;;;;;;118.97;70.25;;;;;;;;;;5034219;28;20373;-56
2022/10/17 01:15:03;;;;;;;121.85;69.47;;;;;;;;;;5034380;28;20492;-54
2022/10/17 01:17:29;;;;;;;111.15;65.15;;;;;;;;;;5032577;28;20091;-57
2022/10/17 01:20:14;;;;;;;108.25;67.00;;;;;;;;;;5033605;28;20504;-55
2022/10/17 01:22:45;;;;;;;116.35;65.13;;;;;;;;;;5026461;28;20038;-57
2022/10/17 01:25:15;;;;;;;104.30;65.32;;;;;;;;;;5028980;28;20037;-55
2022/10/17 01:27:50;;;;;;;118.90;68.00;;;;;;;;;;5033738;28;20025;-55
2022/10/17 01:30:16;;;;;;;107.57;65.35;;;;;;;;;;5013313;28;20026;-56
2022/10/17 01:32:46;;;;;;;121.43;69.32;;;;;;;;;;5022065;28;20040;-54
2022/10/17 01:35:22;;;;;;;111.97;70.20;;;;;;;;;;5034243;28;20036;-55
2022/10/17 01:37:53;;;;;;;121.57;69.18;;;;;;;;;;5021114;28;20033;-55
2022/10/17 01:40:24;;;;;;;108.10;63.08;;;;;;;;;;5033618;28;20036;-57
2022/10/17 01:42:53;;;;;;;124.25;70.55;;;;;;;;;;5020445;28;20033;-53
2022/10/17 01:45:22;;;;;;;117.38;70.55;;;;;;;;;;5026829;28;20112;-54
2022/10/17 01:47:50;;;;;;;115.00;70.20;;;;;;;;;;5033910;28;20384;-54
2022/10/17 01:50:19;;;;;;;118.65;68.15;;;;;;;;;;5033716;28;20120;-53
2022/10/17 01:52:48;;;;;;;118.68;67.22;;;;;;;;;;5024645;28;20093;-53
2022/10/17 01:55:26;;;;;;;117.45;68.43;;;;;;;;;;5014098;28;20547;-55
2022/10/17 01:57:58;;;;;;;116.90;68.45;;;;;;;;;;5015270;28;20116;-53
2022/10/17 02:00:26;;;;;;;119.18;68.63;;;;;;;;;;5014021;28;20026;-56
2022/10/17 02:02:54;;;;;;;106.13;65.60;;;;;;;;;;5027149;28;20037;-55
2022/10/17 02:05:23;;;;;;;118.93;69.38;;;;;;;;;;5032002;28;20030;-57
2022/10/17 02:07:49;;;;;;;112.47;67.93;;;;;;;;;;5021746;28;20033;-56
2022/10/17 02:10:31;;;;;;;116.43;68.63;;;;;;;;;;5012457;28;20022;-54
2022/10/17 02:13:04;;;;;;;118.43;69.10;;;;;;;;;;5019286;28;20029;-56
2022/10/17 02:15:30;;;;;;;116.97;69.63;;;;;;;;;;5023695;28;20087;-55
2022/10/17 02:18:04;;;;;;;128.05;69.53;;;;;;;;;;5032880;28;20116;-55
2022/10/17 02:20:31;;;;;;;104.93;63.67;;;;;;;;;;5033224;28;20495;-52
2022/10/17 02:22:57;;;;;;;103.88;64.47;;;;;;;;;;5022340;28;20099;-57
2022/10/17 02:25:29;;;;;;;101.60;59.13;;;;;;;;;;5014602;28;20244;-57
2022/10/17 02:28:04;;;;;;;91.60;57.25;;;;;;;;;;5013667;28;20037;-57
2022/10/17 02:30:34;;;;;;;92.55;56.88;;;;;;;;;;5012566;28;20022;-57
2022/10/17 02:33:01;;;;;;;85.50;53.50;;;;;;;;;;5013869;28;20021;-55
2022/10/17 02:35:30;;;;;;;91.97;55.95;;;;;;;;;;5022432;28;20103;-54
2022/10/17 02:37:57;;;;;;;93.78;54.47;;;;;;;;;;5032213;28;20034;-57
2022/10/17 02:40:24;;;;;;;83.10;53.50;;;;;;;;;;5026330;28;20403;-56
2022/10/17 02:42:51;;;;;;;83.28;53.40;;;;;;;;;;5025544;28;20037;-55
2022/10/17 02:45:18;;;;;;;92.65;55.78;;;;;;;;;;5024622;28;20404;-57
2022/10/17 02:47:44;;;;;;;;;;;;;;;;;;5033223;28;20112;-52
2022/10/17 02:50:10;;;;;;;86.43;52.97;;;;;;;;;;5021232;28;20000;-58
2022/10/17 02:52:40;;;;;;;94.80;56.17;;;;;;;;;;5012248;28;20113;-58
2022/10/17 02:55:11;;;;;;;89.35;55.45;;;;;;;;;;5026934;28;20343;-58
2022/10/17 02:57:39;;;;;;;86.90;53.47;;;;;;;;;;5020308;28;20514;-56
2022/10/17 03:00:13;;;;;;;106.60;62.55;;;;;;;;;;5032661;28;20108;-58
2022/10/17 03:02:45;;;;;;;90.10;56.40;;;;;;;;;;5028753;28;20116;-57
2022/10/17 03:05:12;;;;;;;92.43;55.17;;;;;;;;;;5027326;28;20448;-58
2022/10/17 03:07:38;;;;;;;85.15;52.47;;;;;;;;;;5016255;28;20029;-56
2022/10/17 03:10:05;;;;;;;80.85;50.80;;;;;;;;;;5011150;28;20033;-56
2022/10/17 03:12:31;;;;;;;73.87;48.60;;;;;;;;;;5013751;28;20029;-56
2022/10/17 03:14:57;;;;;;;74.68;48.33;;;;;;;;;;5021553;28;20132;-55
2022/10/17 03:17:23;;;;;;;72.57;46.55;;;;;;;;;;5012587;28;20511;-56
2022/10/17 03:19:49;;;;;;;63.33;40.95;;;;;;;;;;5012414;28;20037;-56
2022/10/17 03:22:15;;;;;;;61.85;42.25;;;;;;;;;;5012629;28;20092;-56
2022/10/17 03:24:41;;;;;;;68.20;45.20;;;;;;;;;;5018211;28;20563;-55
2022/10/17 03:27:07;;;;;;;71.90;47.20;;;;;;;;;;5017336;28;20392;-58
2022/10/17 03:29:33;;;;;;;94.20;56.23;;;;;;;;;;5012533;28;20029;-57
2022/10/17 03:31:59;;;;;;;78.20;50.00;;;;;;;;;;5032393;28;20416;-56
2022/10/17 03:34:25;;;;;;;83.95;52.70;;;;;;;;;;5014235;28;20121;-56
2022/10/17 03:36:51;;;;;;;77.55;51.17;;;;;;;;;;5012351;28;20057;-58
2022/10/17 03:39:17;;;;;;;81.18;50.78;;;;;;;;;;5018340;28;20026;-57
2022/10/17 03:41:43;;;;;;;86.78;54.03;;;;;;;;;;5018535;28;20033;-56
2022/10/17 03:44:09;;;;;;;93.35;56.78;;;;;;;;;;5022662;28;20020;-56
2022/10/17 03:46:35;;;;;;;84.05;50.80;;;;;;;;;;5021939;28;20092;-59
2022/10/17 03:49:01;;;;;;;81.32;52.47;;;;;;;;;;5012080;28;20075;-57
2022/10/17 03:51:27;;;;;;;87.38;54.10;;;;;;;;;;5012069;28;20044;-56
2022/10/17 03:53:53;;;;;;;98.13;61.17;;;;;;;;;;5010841;28;20071;-56
2022/10/17 03:56:21;;;;;;;92.20;55.40;;;;;;;;;;5022174;28;20030;-57
2022/10/17 03:58:48;;;;;;;76.38;51.10;;;;;;;;;;5012683;28;20037;-51
2022/10/17 04:01:15;;;;;;;81.00;45.17;;;;;;;;;;5011442;28;20443;-59
2022/10/17 04:03:42;;;;;;;84.57;48.65;;;;;;;;;;5010965;28;20079;-59
2022/10/17 04:06:10;;;;;;;70.35;44.22;;;;;;;;;;5011888;28;20030;-57
2022/10/17 04:08:37;;;;;;;67.57;43.30;;;;;;;;;;5011690;28;20022;-59
2022/10/17 04:11:04;;;;;;;61.35;41.92;;;;;;;;;;5011862;28;20030;-57
2022/10/17 04:13:30;;;;;;;66.85;43.45;;;;;;;;;;5010509;28;20129;-60
2022/10/17 04:15:58;;;;;;;64.43;43.67;;;;;;;;;;5011290;28;20022;-57
2022/10/17 04:18:24;;;;;;;61.95;40.10;;;;;;;;;;5011112;28;20057;-59
2022/10/17 04:20:50;;;;;;;56.65;39.33;;;;;;;;;;5011858;28;20034;-57
2022/10/17 04:23:17;;;;;;;62.80;41.17;;;;;;;;;;5011828;28;20037;-59
2022/10/17 04:25:43;;;;;;;54.03;36.42;;;;;;;;;;5010645;28;20033;-60
2022/10/17 04:28:09;;;;;;;55.10;36.15;;;;;;;;;;5011721;28;20022;-57
2022/10/17 04:30:35;;;;;;;51.40;36.83;;;;;;;;;;5011625;28;20030;-57
2022/10/17 04:33:01;;;;;;;50.47;36.22;;;;;;;;;;5010521;28;20026;-57
2022/10/17 04:35:27;;;;;;;46.63;34.25;;;;;;;;;;5011628;28;20030;-59
2022/10/17 04:37:53;;;;;;;47.00;33.70;;;;;;;;;;5015055;28;20092;-59
2022/10/17 04:40:19;;;;;;;49.90;37.97;;;;;;;;;;5015510;28;20195;-58
2022/10/17 04:42:45;;;;;;;53.70;35.83;;;;;;;;;;5015734;28;20030;-63
2022/10/17 04:45:11;;;;;;;55.47;37.08;;;;;;;;;;5015572;28;20276;-60
2022/10/17 04:47:38;;;;;;;58.13;39.42;;;;;;;;;;5015536;28;20392;-60
2022/10/17 04:50:04;;;;;;;56.08;39.40;;;;;;;;;;5015093;28;20030;-61
2022/10/17 04:52:30;;;;;;;54.67;40.25;;;;;;;;;;5015534;28;20028;-60
2022/10/17 04:54:57;;;;;;;60.42;42.13;;;;;;;;;;5015689;28;20026;-59
2022/10/17 04:57:23;;;;;;;62.15;42.78;;;;;;;;;;5015305;28;20116;-59
2022/10/17 04:59:50;;;;;;;56.35;39.83;;;;;;;;;;5015369;28;20408;-58
2022/10/17 05:02:16;;;;;;;62.30;43.73;;;;;;;;;;5015317;28;20045;-60
2022/10/17 05:04:42;;;;;;;68.97;46.35;;;;;;;;;;5015056;28;20037;-60
2022/10/17 05:07:08;;;;;;;62.90;43.95;;;;;;;;;;5015078;28;20026;-56
2022/10/17 05:09:34;;;;;;;63.17;43.90;;;;;;;;;;5014897;28;20018;-60
2022/10/17 05:12:00;;;;;;;69.50;47.55;;;;;;;;;;5015089;28;20018;-59
2022/10/17 05:14:26;;;;;;;80.75;49.13;;;;;;;;;;5015069;28;20110;-59
2022/10/17 05:16:52;;;;;;;70.10;47.55;;;;;;;;;;5015028;28;20050;-59
2022/10/17 05:19:18;;;;;;;84.45;53.53;;;;;;;;;;5014578;28;20022;-60
2022/10/17 05:21:44;;;;;;;78.32;49.25;;;;;;;;;;5014905;28;20024;-60
2022/10/17 05:24:11;;;;;;;75.00;50.35;;;;;;;;;;5014903;28;20105;-59
2022/10/17 05:26:37;;;;;;;79.45;51.33;;;;;;;;;;5014791;28;20480;-59
2022/10/17 05:29:04;;;;;;;81.57;51.90;;;;;;;;;;5014634;28;20508;-58
2022/10/17 05:31:30;;;;;;;82.05;49.78;;;;;;;;;;5014541;28;20496;-58
2022/10/17 05:34:00;;;;;;;88.20;53.08;;;;;;;;;;5015045;28;20032;-59
2022/10/17 05:36:26;;;;;;;95.57;57.72;;;;;;;;;;5014698;28;20026;-61
2022/10/17 05:38:52;;;;;;;93.00;59.40;;;;;;;;;;5014394;28;20416;-62
2022/10/17 05:41:19;;;;;;;105.65;62.28;;;;;;;;;;5014492;28;20050;-61
2022/10/17 05:43:45;;;;;;;102.68;62.33;;;;;;;;;;5013228;28;20113;-60
2022/10/17 05:46:12;;;;;;;110.32;60.75;;;;;;;;;;5014358;28;20389;-61
2022/10/17 05:48:38;;;;;;;97.80;59.72;;;;;;;;;;5013654;28;20033;-58
2022/10/17 05:51:06;;;;;;;99.65;59.10;;;;;;;;;;5014284;28;20058;-59
2022/10/17 05:53:33;;;;;;;111.97;63.92;;;;;;;;;;5013017;28;20036;-58
2022/10/17 05:55:59;;;;;;;;;;;;;;;;;;5014744;28;20030;-60
2022/10/17 05:58:26;;;;;;;105.40;62.80;;;;;;;;;;5014093;28;19912;-62
2022/10/17 06:00:56;;;;;;;110.50;66.65;;;;;;;;;;5014102;28;20061;-61
2022/10/17 06:03:22;;;;;;;109.13;64.60;;;;;;;;;;5014212;28;20500;-58
2022/10/17 06:05:48;;;;;;;116.65;67.43;;;;;;;;;;5013978;28;20502;-59
2022/10/17 06:08:15;;;;;;;107.47;66.15;;;;;;;;;;5013823;28;20034;-58
2022/10/17 06:10:41;;;;;;;103.65;63.28;;;;;;;;;;5013997;28;20022;-57
2022/10/17 06:13:07;;;;;;;118.10;67.57;;;;;;;;;;5014018;28;20022;-57
2022/10/17 06:15:34;;;;;;;120.68;65.15;;;;;;;;;;5012629;28;20034;-60
2022/10/17 06:18:00;;;;;;;107.18;65.15;;;;;;;;;;5013953;28;20029;-58
2022/10/17 06:20:26;;;;;;;108.63;63.97;;;;;;;;;;5013539;28;20096;-58
2022/10/17 06:22:52;;;;;;;112.68;64.60;;;;;;;;;;5013732;28;20025;-57
2022/10/17 06:25:18;;;;;;;101.75;59.88;;;;;;;;;;5013610;28;20439;-59
2022/10/17 06:27:44;;;;;;;101.80;61.17;;;;;;;;;;5013670;28;20025;-60
2022/10/17 06:30:10;;;;;;;95.50;58.28;;;;;;;;;;5013432;28;20030;-59
2022/10/17 06:32:36;;;;;;;91.70;55.38;;;;;;;;;;5013644;28;20022;-60
2022/10/17 06:35:02;;;;;;;112.68;63.88;;;;;;;;;;5013482;28;20109;-59
2022/10/17 06:37:35;;;;;;;109.25;60.50;;;;;;;;;;5013437;28;20435;-58
2022/10/17 06:40:01;;;;;;;97.93;57.25;;;;;;;;;;5013324;28;20030;-57
2022/10/17 06:42:28;;;;;;;112.33;60.93;;;;;;;;;;5013436;28;20033;-59
2022/10/17 06:44:54;;;;;;;100.10;60.30;;;;;;;;;;5013264;28;20335;-59
2022/10/17 06:47:20;;;;;;;100.57;60.83;;;;;;;;;;5013382;28;20026;-57
2022/10/17 06:49:46;;;;;;;98.40;57.60;;;;;;;;;;5012922;28;20037;-60
2022/10/17 06:52:13;;;;;;;100.65;59.53;;;;;;;;;;5013389;28;20113;-59
2022/10/17 06:54:39;;;;;;;;;;;;;;;;;;5013650;28;20097;-59
2022/10/17 06:57:05;;;;;;;94.90;57.00;;;;;;;;;;5013120;28;20002;-58
2022/10/17 06:59:31;;;;;;;111.03;59.33;;;;;;;;;;5012262;28;20038;-58
2022/10/17 07:01:57;;;;;;;103.13;59.92;;;;;;;;;;5012823;28;20033;-63
2022/10/17 07:04:23;;;;;;;94.97;59.83;;;;;;;;;;5012914;28;20028;-61
2022/10/17 07:06:49;;;;;;;98.97;59.08;;;;;;;;;;5012956;28;20034;-62
2022/10/17 07:09:15;;;;;;;95.95;60.80;;;;;;;;;;5011413;28;20029;-62
2022/10/17 07:11:42;;;;;;;102.90;61.40;;;;;;;;;;5012854;28;20026;-58
2022/10/17 07:14:08;;;;;;;104.93;62.67;;;;;;;;;;5012866;28;20032;-65
2022/10/17 07:16:34;;;;;;;112.15;62.10;;;;;;;;;;5012810;28;20096;-65
2022/10/17 07:19:00;;;;;;;109.03;63.13;;;;;;;;;;5012600;28;20484;-65
2022/10/17 07:21:26;;;;;;;104.95;62.30;;;;;;;;;;5012605;28;20026;-65
2022/10/17 07:23:52;;;;;;;130.13;69.20;;;;;;;;;;5012676;28;20033;-65
2022/10/17 07:26:19;;;;;;;123.68;68.68;;;;;;;;;;5012567;28;20032;-65
2022/10/17 07:28:46;;;;;;;124.45;71.72;;;;;;;;;;5011161;28;20018;-65
2022/10/17 07:31:19;;;;;;;129.50;71.75;;;;;;;;;;5107104;27;20360;-65
2022/10/17 07:33:45;;;;;;;147.50;73.65;;;;;;;;;;5089486;28;20016;-65
2022/10/17 07:36:12;;;;;;;138.00;72.65;;;;;;;;;;5089270;28;20028;-65
2022/10/17 07:38:38;;;;;;;151.95;75.97;;;;;;;;;;5089066;28;20481;-65
2022/10/17 07:41:05;;;;;;;142.83;71.73;;;;;;;;;;5089066;28;20035;-65
2022/10/17 07:43:31;;;;;;;;;;;;;;;;;;5088748;28;20265;-65
2022/10/17 07:45:57;;;;;;;163.02;76.20;;;;;;;;;;5088956;28;19906;-65
2022/10/17 07:48:24;;;;;;;140.50;74.30;;;;;;;;;;5088783;28;20056;-65
2022/10/17 07:50:50;;;;;;;141.85;72.18;;;;;;;;;;5088829;28;20107;-65
2022/10/17 07:53:17;;;;;;;145.27;74.10;;;;;;;;;;5088882;28;20020;-65
2022/10/17 07:55:45;;;;;;;145.23;72.28;;;;;;;;;;5088806;28;20028;-65
2022/10/17 07:58:11;;;;;;;142.02;72.20;;;;;;;;;;5088681;28;20020;-66
2022/10/17 08:00:38;;;;;;;126.88;69.35;;;;;;;;;;5088686;28;20028;-65
2022/10/17 08:03:04;;;;;;;156.98;75.95;;;;;;;;;;5087450;28;20024;-65
2022/10/17 08:05:30;;;;;;;141.35;71.80;;;;;;;;;;5088682;28;20032;-65
2022/10/17 08:07:56;;;;;;;133.23;69.35;;;;;;;;;;5088644;28;20455;-65
2022/10/17 08:10:28;;;;;;;119.40;65.28;;;;;;;;;;5088277;28;20393;-65
2022/10/17 08:12:55;;;;;;;125.28;65.22;;;;;;;;;;5088534;28;20052;-65
2022/10/17 08:15:21;;;;;;;124.55;67.13;;;;;;;;;;5088462;28;20485;-65
2022/10/17 08:17:47;;;;;;;121.73;70.57;;;;;;;;;;5087201;28;20059;-66
2022/10/17 08:20:13;;;;;;;121.90;66.28;;;;;;;;;;5088528;28;20032;-65
2022/10/17 08:22:39;;;;;;;118.50;64.65;;;;;;;;;;5088368;28;20488;-65
2022/10/17 08:25:05;;;;;;;120.78;63.50;;;;;;;;;;5088266;28;20052;-65
2022/10/17 08:27:34;;;;;;;111.28;62.03;;;;;;;;;;5088269;28;20138;-65
2022/10/17 08:30:00;;;;;;;115.47;59.83;;;;;;;;;;5087847;28;20028;-66
2022/10/17 08:32:28;;;;;;;98.85;58.30;;;;;;;;;;5088179;28;20032;-66
2022/10/17 08:34:54;;;;;;;108.78;59.50;;;;;;;;;;5088051;28;20020;-65
2022/10/17 08:37:21;;;;;;;105.15;59.85;;;;;;;;;;5088055;28;20033;-65
2022/10/17 08:39:47;;;;;;;100.53;57.40;;;;;;;;;;5087834;28;20035;-65
2022/10/17 08:42:32;;;;;;;93.00;56.63;;;;;;;;;;5077038;28;20107;-65
2022/10/17 08:45:10;;;;;;;95.00;55.72;;;;;;;;;;5074386;28;20772;-66
2022/10/17 08:47:44;;;;;;;96.28;54.25;;;;;;;;;;5074210;28;20485;-65
2022/10/17 08:50:22;;;;;;;86.90;51.47;;;;;;;;;;5072782;28;20178;-65
2022/10/17 08:52:57;;;;;;;99.97;55.65;;;;;;;;;;5074361;28;20319;-66
2022/10/17 08:55:32;;;;;;;83.85;51.90;;;;;;;;;;5074314;28;20028;-66
2022/10/17 08:57:58;;;;;;;91.45;54.20;;;;;;;;;;5074241;28;20017;-66
2022/10/17 09:00:24;;;;;;;93.70;54.15;;;;;;;;;;5073911;28;20392;-65
2022/10/17 09:03:01;;;;;;;88.65;51.53;;;;;;;;;;5074599;28;20028;-65
2022/10/17 09:05:34;;;;;;;92.53;53.33;;;;;;;;;;5074147;28;20024;-65
2022/10/17 09:08:00;;;;;;;87.07;50.97;;;;;;;;;;5074060;28;20259;-66
2022/10/17 09:10:26;;;;;;;93.53;55.70;;;;;;;;;;5073711;28;20024;-65
2022/10/17 09:13:10;;;;;;;93.93;53.53;;;;;;;;;;5073993;28;20029;-65
2022/10/17 09:15:54;;;;;;;88.30;52.95;;;;;;;;;;5073788;28;20023;-66
2022/10/17 09:18:23;;;;;;;87.82;52.83;;;;;;;;;;5072471;28;20035;-64
2022/10/17 09:20:51;;;;;;;86.93;50.47;;;;;;;;;;5073564;28;20116;-66
2022/10/17 09:23:22;;;;;;;91.57;52.95;;;;;;;;;;5073706;28;20036;-65
2022/10/17 09:25:50;;;;;;;90.70;55.08;;;;;;;;;;5073653;28;20032;-65
2022/10/17 09:28:20;;;;;;;92.82;52.28;;;;;;;;;;5073495;28;20032;-65
2022/10/17 09:30:48;;;;;;;89.18;51.58;;;;;;;;;;5073360;28;20516;-65
2022/10/17 09:33:16;;;;;;;84.47;49.85;;;;;;;;;;5073512;28;20073;-65
2022/10/17 09:35:42;;;;;;;83.13;50.45;;;;;;;;;;5073382;28;20089;-65
2022/10/17 09:38:19;;;;;;;86.55;50.90;;;;;;;;;;5073386;28;20024;-65
2022/10/17 09:40:50;;;;;;;81.38;50.92;;;;;;;;;;5073365;28;20032;-65
2022/10/17 09:43:16;;;;;;;89.50;53.85;;;;;;;;;;5073804;28;20028;-65
2022/10/17 09:45:50;;;;;;;87.20;52.10;;;;;;;;;;5073179;28;20025;-65
2022/10/17 09:48:31;;;;;;;88.68;52.58;;;;;;;;;;5073147;28;20036;-66
2022/10/17 09:50:57;;;;;;;87.10;52.58;;;;;;;;;;5072952;28;20076;-65
2022/10/17 09:53:27;;;;;;;86.30;51.33;;;;;;;;;;5072330;28;20105;-64
2022/10/17 09:55:57;;;;;;;89.78;52.60;;;;;;;;;;5071802;28;20070;-65
2022/10/17 09:58:24;;;;;;;83.38;49.55;;;;;;;;;;5072817;28;20056;-65
2022/10/17 10:00:50;;;;;;;79.67;49.80;;;;;;;;;;5073250;28;20103;-65
2022/10/17 10:03:16;;;;;;;75.13;48.95;;;;;;;;;;5072988;28;20028;-66
2022/10/17 10:05:42;;;;;;;80.87;48.77;;;;;;;;;;5072785;28;20024;-65
2022/10/17 10:08:15;;;;;;;83.75;51.40;;;;;;;;;;5072712;28;20025;-65
2022/10/17 10:10:42;;;;;;;78.32;50.03;;;;;;;;;;5072606;28;20110;-64
2022/10/17 10:13:14;;;;;;;80.13;47.47;;;;;;;;;;5072708;28;20025;-65
2022/10/17 10:15:45;;;;;;;79.65;50.33;;;;;;;;;;5072606;28;20090;-63
2022/10/17 10:18:26;;;;;;;79.80;47.50;;;;;;;;;;5072402;28;20056;-66
2022/10/17 10:21:28;;;;;;;76.95;47.15;;;;;;;;;;5072450;28;20025;-65
2022/10/17 10:24:12;;;;;;;73.60;44.85;;;;;;;;;;5050173;28;20025;-65
2022/10/17 10:26:40;;;;;;;76.47;48.95;;;;;;;;;;5070845;28;20044;-64
2022/10/17 10:29:18;;;;;;;75.38;47.58;;;;;;;;;;5072077;28;20024;-64
2022/10/17 10:31:45;;;;;;;76.28;49.13;;;;;;;;;;5072440;28;20392;-65
2022/10/17 10:34:24;;;;;;;76.00;46.80;;;;;;;;;;5071096;28;20043;-64
2022/10/17 10:37:01;;;;;;;71.35;46.67;;;;;;;;;;5072264;28;20023;-65
2022/10/17 10:39:33;;;;;;;71.97;44.47;;;;;;;;;;5072043;28;20024;-64
2022/10/17 10:42:00;;;;;;;71.38;45.33;;;;;;;;;;5070554;28;20380;-64
2022/10/17 10:44:28;;;;;;;71.90;46.60;;;;;;;;;;5071585;28;20114;-65
2022/10/17 10:47:08;;;;;;;70.57;47.15;;;;;;;;;;5071700;28;20016;-64
2022/10/17 10:49:34;;;;;;;71.20;44.47;;;;;;;;;;5068798;28;20393;-65
2022/10/17 10:52:01;;;;;;;67.85;43.20;;;;;;;;;;5070287;28;20392;-64
2022/10/17 10:54:30;;;;;;;69.90;44.42;;;;;;;;;;5069776;28;20028;-65
2022/10/17 10:56:58;;;;;;;69.03;43.40;;;;;;;;;;5069788;28;20025;-65
2022/10/17 10:59:44;;;;;;;66.00;42.70;;;;;;;;;;5069612;28;20035;-65
2022/10/17 11:02:23;;;;;;;66.18;42.35;;;;;;;;;;5069502;28;20089;-65
2022/10/17 11:04:53;;;;;;;65.15;42.47;;;;;;;;;;5071101;28;20036;-65
2022/10/17 11:07:21;;;;;;;62.40;41.00;;;;;;;;;;5071385;28;20103;-65
2022/10/17 11:09:56;;;;;;;61.22;42.00;;;;;;;;;;5071501;28;20032;-60
2022/10/17 11:12:25;;;;;;;64.07;41.78;;;;;;;;;;5071614;28;20021;-65
2022/10/17 11:14:57;;;;;;;60.72;41.05;;;;;;;;;;5071521;28;20020;-66
2022/10/17 11:17:27;;;;;;;65.03;43.83;;;;;;;;;;5071574;28;20557;-65
2022/10/17 11:20:03;;;;;;;62.85;41.22;;;;;;;;;;5070539;28;20107;-65
2022/10/17 11:22:31;;;;;;;64.13;41.25;;;;;;;;;;5071014;28;20025;-66
2022/10/17 11:25:14;;;;;;;61.78;41.03;;;;;;;;;;5071599;28;20495;-65
2022/10/17 11:27:40;;;;;;;62.90;42.38;;;;;;;;;;5071877;28;20021;-65
2022/10/17 11:30:06;;;;;;;58.67;38.35;;;;;;;;;;5071162;28;20032;-66
2022/10/17 11:32:42;;;;;;;51.15;35.85;;;;;;;;;;5071557;28;20059;-65
2022/10/17 11:35:15;;;;;;;54.53;36.47;;;;;;;;;;5071514;28;20032;-65
2022/10/17 11:37:43;;;;;;;57.38;37.20;;;;;;;;;;5071464;28;20029;-65
2022/10/17 11:40:20;;;;;;;54.17;37.05;;;;;;;;;;5071231;28;20033;-66
2022/10/17 11:42:56;;;;;;;54.85;37.58;;;;;;;;;;5071467;28;20027;-65
2022/10/17 11:45:24;;;;;;;55.72;36.45;;;;;;;;;;5071419;28;20033;-65
2022/10/17 11:48:10;;;;;;;55.55;36.88;;;;;;;;;;5070155;28;20024;-65
2022/10/17 11:50:38;;;;;;;58.05;37.88;;;;;;;;;;5070139;28;20021;-66
2022/10/17 11:53:15;;;;;;;55.35;35.72;;;;;;;;;;5070687;28;20020;-65
2022/10/17 11:55:42;;;;;;;57.80;36.38;;;;;;;;;;5070001;28;20033;-66
2022/10/17 11:58:20;;;;;;;53.40;35.75;;;;;;;;;;5069887;28;20550;-66
2022/10/17 12:01:19;;;;;;;63.22;38.17;;;;;;;;;;5058272;28;20112;-66
2022/10/17 12:03:54;;;;;;;52.70;35.35;;;;;;;;;;5050506;28;20194;-65
2022/10/17 12:06:45;;;;;;;52.90;34.92;;;;;;;;;;5071146;28;20029;-65
2022/10/17 12:09:11;;;;;;;52.53;35.13;;;;;;;;;;5067384;28;20040;-65
2022/10/17 12:11:52;;;;;;;50.58;36.65;;;;;;;;;;5069942;28;20401;-66
2022/10/17 12:14:33;;;;;;;49.38;35.63;;;;;;;;;;5069052;28;20445;-66
2022/10/17 12:17:00;;;;;;;49.47;34.50;;;;;;;;;;5072437;28;20024;-65
2022/10/17 12:19:29;;;;;;;49.17;35.00;;;;;;;;;;5053380;28;20025;-66
2022/10/17 12:21:55;;;;;;;49.35;33.75;;;;;;;;;;5053604;28;20033;-66
2022/10/17 12:24:32;;;;;;;45.27;30.67;;;;;;;;;;5068971;28;20085;-66
2022/10/17 12:27:18;;;;;;;43.25;29.77;;;;;;;;;;5074127;28;20111;-66
2022/10/17 12:29:44;;;;;;;46.13;30.38;;;;;;;;;;5074187;28;20036;-66
2022/10/17 12:32:11;;;;;;;47.53;34.50;;;;;;;;;;5074191;28;20024;-66
2022/10/17 12:34:38;;;;;;;50.22;33.28;;;;;;;;;;5074495;28;20036;-66
2022/10/17 12:37:04;;;;;;;49.45;33.42;;;;;;;;;;5072962;28;20413;-66
2022/10/17 12:39:30;;;;;;;53.73;33.37;;;;;;;;;;5074010;28;20033;-66
2022/10/17 12:41:56;;;;;;;45.33;31.47;;;;;;;;;;5074391;28;20790;-66
2022/10/17 12:44:26;;;;;;;43.63;30.47;;;;;;;;;;5074042;28;20024;-66
2022/10/17 12:46:55;;;;;;;43.50;31.30;;;;;;;;;;5074410;28;20024;-66
2022/10/17 12:49:38;;;;;;;47.95;33.40;;;;;;;;;;5072485;28;20037;-66
2022/10/17 12:52:04;;;;;;;42.72;32.00;;;;;;;;;;5074309;28;20030;-66
2022/10/17 12:54:30;;;;;;;47.80;34.83;;;;;;;;;;5073756;28;20021;-66
2022/10/17 12:56:57;;;;;;;48.13;32.83;;;;;;;;;;5074014;28;20139;-66
2022/10/17 12:59:27;;;;;;;46.95;33.55;;;;;;;;;;5073693;28;20028;-66
2022/10/17 13:01:58;;;;;;;49.40;33.33;;;;;;;;;;5073661;28;20493;-66
2022/10/17 13:04:25;;;;;;;47.70;32.40;;;;;;;;;;5074023;28;20025;-65
2022/10/17 13:06:53;;;;;;;47.45;31.77;;;;;;;;;;5073687;28;20025;-65
2022/10/17 13:09:25;;;;;;;49.97;34.50;;;;;;;;;;5073312;28;20489;-66
2022/10/17 13:11:52;;;;;;;51.42;32.78;;;;;;;;;;5073596;28;20400;-66
2022/10/17 13:14:18;;;;;;;;;;;;;;;;;;5074026;28;20020;-65
2022/10/17 13:16:54;;;;;;;44.42;32.58;;;;;;;;;;5073904;28;20003;-65
2022/10/17 13:19:22;;;;;;;46.33;31.77;;;;;;;;;;5073253;28;20473;-65
2022/10/17 13:21:55;;;;;;;46.13;32.47;;;;;;;;;;5073806;28;20060;-65
2022/10/17 13:24:32;;;;;;;43.90;30.73;;;;;;;;;;5073015;28;20093;-65
2022/10/17 13:26:58;;;;;;;;;;;;;;;;;;5073429;28;20017;-65
2022/10/17 13:29:24;;;;;;;44.63;34.08;;;;;;;;;;5072401;28;19912;-66
2022/10/17 13:31:55;;;;;;;51.55;32.85;;;;;;;;;;5073328;28;20370;-65
2022/10/17 13:34:23;;;;;;;47.70;32.80;;;;;;;;;;5072102;28;20016;-65
2022/10/17 13:36:54;;;;;;;51.20;34.03;;;;;;;;;;5073185;28;20025;-65
2022/10/17 13:39:34;;;;;;;47.95;32.55;;;;;;;;;;5072633;28;20025;-65
2022/10/17 13:42:00;;;;;;;49.75;33.58;;;;;;;;;;5089015;22;20064;-55
2022/10/17 13:44:28;;;;;;;48.10;32.47;;;;;;;;;;5052866;28;20033;-53
2022/10/17 13:46:54;;;;;;;53.65;34.80;;;;;;;;;;5051262;28;20043;-56
2022/10/17 13:49:32;;;;;;;45.97;33.22;;;;;;;;;;5046338;28;20385;-57
2022/10/17 13:51:59;;;;;;;52.35;34.63;;;;;;;;;;5033620;28;20033;-56
2022/10/17 13:54:25;;;;;;;46.33;32.22;;;;;;;;;;5033208;28;20104;-57
2022/10/17 13:56:56;;;;;;;48.47;31.90;;;;;;;;;;5033049;28;20563;-55
2022/10/17 13:59:23;;;;;;;52.20;33.88;;;;;;;;;;5039913;28;20116;-57
2022/10/17 14:01:51;;;;;;;47.15;33.30;;;;;;;;;;5052940;28;20032;-56
2022/10/17 14:04:17;;;;;;;43.20;31.83;;;;;;;;;;5053011;28;20028;-57
2022/10/17 14:06:43;;;;;;;49.88;31.75;;;;;;;;;;5052610;28;20032;-56
2022/10/17 14:09:24;;;;;;;47.80;33.38;;;;;;;;;;5052022;28;20032;-57
2022/10/17 14:12:06;;;;;;;46.72;31.48;;;;;;;;;;5052628;28;20398;-57
2022/10/17 14:14:33;;;;;;;42.63;30.70;;;;;;;;;;5052612;28;20469;-57
2022/10/17 14:16:59;;;;;;;40.35;28.25;;;;;;;;;;5052689;28;20146;-56
2022/10/17 14:19:30;;;;;;;48.67;29.58;;;;;;;;;;5052143;28;20029;-56
2022/10/17 14:22:16;;;;;;;40.75;28.08;;;;;;;;;;5052228;28;20033;-56
2022/10/17 14:24:42;;;;;;;40.15;28.90;;;;;;;;;;5052533;28;20478;-56
2022/10/17 14:27:46;;;;;;;46.88;30.90;;;;;;;;;;5052120;28;20044;-55